sensor_id;sensor_type;location;lat;lon;timestamp;pressure;altitude;pressure_sealevel;temperature;humidity
59272;BME280;45043;51.068;7.026;2023-04-30T00:01:10;101012.59;;;7.22;57.31
59272;BME280;45043;51.068;7.026;2023-04-30T00:04:11;101012.09;;;7.19;57.21
59272;BME280;45043;51.068;7.026;2023-04-30T00:07:11;101011.56;;;7.15;57.19
59272;BME280;45043;51.068;7.026;2023-04-30T00:10:15;101012.56;;;7.14;57.06
59272;BME280;45043;51.068;7.026;2023-04-30T00:13:16;101011.06;;;7.11;57.05
59272;BME280;45043;51.068;7.026;2023-04-30T00:16:18;101010.25;;;7.11;56.94
59272;BME280;45043;51.068;7.026;2023-04-30T00:19:19;101009.41;;;7.10;56.83
59272;BME280;45043;51.068;7.026;2023-04-30T00:22:19;101010.56;;;7.08;56.65
59272;BME280;45043;51.068;7.026;2023-04-30T00:25:20;101010.72;;;7.06;57.01
59272;BME280;45043;51.068;7.026;2023-04-30T00:28:20;101021.44;;;7.05;56.88
59272;BME280;45043;51.068;7.026;2023-04-30T00:31:21;101023.75;;;7.00;56.74
59272;BME280;45043;51.068;7.026;2023-04-30T00:34:21;101025.88;;;6.96;56.76
59272;BME280;45043;51.068;7.026;2023-04-30T00:37:22;101020.78;;;6.95;56.68
59272;BME280;45043;51.068;7.026;2023-04-30T00:40:25;101024.38;;;6.94;56.80
59272;BME280;45043;51.068;7.026;2023-04-30T00:43:28;101028.00;;;6.93;56.87
59272;BME280;45043;51.068;7.026;2023-04-30T00:46:29;101028.00;;;6.93;56.78
59272;BME280;45043;51.068;7.026;2023-04-30T00:49:33;101028.00;;;6.93;56.66
59272;BME280;45043;51.068;7.026;2023-04-30T00:52:33;101032.28;;;6.94;56.62
59272;BME280;45043;51.068;7.026;2023-04-30T00:55:33;101033.59;;;6.90;56.56
59272;BME280;45043;51.068;7.026;2023-04-30T00:58:34;101035.91;;;6.84;56.47
59272;BME280;45043;51.068;7.026;2023-04-30T01:01:34;101036.91;;;6.83;56.54
59272;BME280;45043;51.068;7.026;2023-04-30T01:04:35;101036.19;;;6.81;56.35
59272;BME280;45043;51.068;7.026;2023-04-30T01:07:37;101038.16;;;6.79;56.39
59272;BME280;45043;51.068;7.026;2023-04-30T01:10:46;101038.47;;;6.76;56.22
59272;BME280;45043;51.068;7.026;2023-04-30T01:14:06;101038.09;;;6.71;56.35
59272;BME280;45043;51.068;7.026;2023-04-30T01:17:20;101033.00;;;6.70;56.40
59272;BME280;45043;51.068;7.026;2023-04-30T01:20:25;101032.31;;;6.68;56.40
59272;BME280;45043;51.068;7.026;2023-04-30T01:23:41;101030.31;;;6.61;56.48
59272;BME280;45043;51.068;7.026;2023-04-30T01:27:12;101032.28;;;6.59;56.35
59272;BME280;45043;51.068;7.026;2023-04-30T01:30:16;101034.69;;;6.53;56.30
59272;BME280;45043;51.068;7.026;2023-04-30T01:33:17;101025.63;;;6.47;56.76
59272;BME280;45043;51.068;7.026;2023-04-30T01:46:32;101013.75;;;6.25;56.84
59272;BME280;45043;51.068;7.026;2023-04-30T01:49:50;101014.88;;;6.23;56.78
59272;BME280;45043;51.068;7.026;2023-04-30T01:52:59;101017.34;;;6.16;56.83
59272;BME280;45043;51.068;7.026;2023-04-30T01:56:04;101020.06;;;6.06;56.76
59272;BME280;45043;51.068;7.026;2023-04-30T01:59:07;101015.56;;;5.99;57.18
59272;BME280;45043;51.068;7.026;2023-04-30T02:02:09;101022.94;;;5.95;57.36
59272;BME280;45043;51.068;7.026;2023-04-30T02:05:09;101020.06;;;5.88;57.44
59272;BME280;45043;51.068;7.026;2023-04-30T02:08:10;101024.53;;;5.88;57.41
59272;BME280;45043;51.068;7.026;2023-04-30T02:11:10;101026.34;;;5.87;57.51
59272;BME280;45043;51.068;7.026;2023-04-30T02:14:10;101028.97;;;5.87;57.61
59272;BME280;45043;51.068;7.026;2023-04-30T02:17:11;101025.81;;;5.84;57.60
59272;BME280;45043;51.068;7.026;2023-04-30T02:20:11;101027.94;;;5.80;57.82
59272;BME280;45043;51.068;7.026;2023-04-30T02:23:12;101024.75;;;5.77;57.70
59272;BME280;45043;51.068;7.026;2023-04-30T02:26:13;101022.59;;;5.72;57.67
59272;BME280;45043;51.068;7.026;2023-04-30T02:29:13;101025.53;;;5.69;57.73
59272;BME280;45043;51.068;7.026;2023-04-30T02:32:14;101031.78;;;5.68;57.76
59272;BME280;45043;51.068;7.026;2023-04-30T02:35:15;101029.56;;;5.63;57.95
59272;BME280;45043;51.068;7.026;2023-04-30T02:38:15;101032.66;;;5.59;58.15
59272;BME280;45043;51.068;7.026;2023-04-30T02:41:16;101031.16;;;5.56;58.07
59272;BME280;45043;51.068;7.026;2023-04-30T02:44:16;101024.38;;;5.54;58.24
59272;BME280;45043;51.068;7.026;2023-04-30T02:47:16;101028.31;;;5.50;58.19
59272;BME280;45043;51.068;7.026;2023-04-30T02:50:17;101035.53;;;5.48;57.93
59272;BME280;45043;51.068;7.026;2023-04-30T02:53:18;101034.16;;;5.44;58.32
59272;BME280;45043;51.068;7.026;2023-04-30T02:56:18;101025.03;;;5.38;58.48
59272;BME280;45043;51.068;7.026;2023-04-30T02:59:19;101034.22;;;5.34;58.68
59272;BME280;45043;51.068;7.026;2023-04-30T03:02:19;101028.28;;;5.32;58.48
59272;BME280;45043;51.068;7.026;2023-04-30T03:05:22;101033.69;;;5.30;58.65
59272;BME280;45043;51.068;7.026;2023-04-30T03:08:23;101031.22;;;5.29;58.68
59272;BME280;45043;51.068;7.026;2023-04-30T03:11:23;101039.28;;;5.27;58.71
59272;BME280;45043;51.068;7.026;2023-04-30T03:14:24;101031.75;;;5.23;58.97
59272;BME280;45043;51.068;7.026;2023-04-30T03:17:24;101031.75;;;5.23;58.94
59272;BME280;45043;51.068;7.026;2023-04-30T03:20:25;101043.13;;;5.23;58.98
59272;BME280;45043;51.068;7.026;2023-04-30T03:23:26;101034.53;;;5.21;59.00
59272;BME280;45043;51.068;7.026;2023-04-30T03:26:28;101040.09;;;5.18;59.10
59272;BME280;45043;51.068;7.026;2023-04-30T03:29:28;101037.63;;;5.16;59.13
59272;BME280;45043;51.068;7.026;2023-04-30T03:32:29;101042.38;;;5.13;59.61
59272;BME280;45043;51.068;7.026;2023-04-30T03:35:29;101036.41;;;5.11;59.32
59272;BME280;45043;51.068;7.026;2023-04-30T03:38:30;101037.09;;;5.13;59.29
59272;BME280;45043;51.068;7.026;2023-04-30T03:41:30;101027.13;;;5.07;59.31
59272;BME280;45043;51.068;7.026;2023-04-30T03:44:31;101031.34;;;5.00;59.30
59272;BME280;45043;51.068;7.026;2023-04-30T03:47:31;101033.13;;;4.99;59.73
59272;BME280;45043;51.068;7.026;2023-04-30T03:50:32;101032.97;;;5.01;59.85
59272;BME280;45043;51.068;7.026;2023-04-30T03:53:33;101033.13;;;4.99;59.77
59272;BME280;45043;51.068;7.026;2023-04-30T03:56:34;101038.25;;;5.01;59.74
59272;BME280;45043;51.068;7.026;2023-04-30T03:59:35;101039.94;;;5.02;59.78
59272;BME280;45043;51.068;7.026;2023-04-30T04:02:36;101047.94;;;5.00;59.44
59272;BME280;45043;51.068;7.026;2023-04-30T04:05:36;101049.56;;;4.83;60.11
59272;BME280;45043;51.068;7.026;2023-04-30T04:08:37;101048.06;;;4.71;59.99
59272;BME280;45043;51.068;7.026;2023-04-30T04:11:38;101052.25;;;4.64;60.64
59272;BME280;45043;51.068;7.026;2023-04-30T04:14:38;101054.47;;;4.68;60.62
59272;BME280;45043;51.068;7.026;2023-04-30T04:17:39;101043.50;;;4.73;60.37
59272;BME280;45043;51.068;7.026;2023-04-30T04:20:39;101044.03;;;4.77;60.36
59272;BME280;45043;51.068;7.026;2023-04-30T04:23:40;101051.38;;;4.83;60.55
59272;BME280;45043;51.068;7.026;2023-04-30T04:26:40;101048.31;;;4.87;60.37
59272;BME280;45043;51.068;7.026;2023-04-30T04:29:43;101066.81;;;4.96;60.14
59272;BME280;45043;51.068;7.026;2023-04-30T04:32:43;101068.72;;;5.03;60.22
59272;BME280;45043;51.068;7.026;2023-04-30T04:35:50;101056.81;;;5.09;60.03
59272;BME280;45043;51.068;7.026;2023-04-30T04:38:50;101064.78;;;5.17;60.08
59272;BME280;45043;51.068;7.026;2023-04-30T04:41:51;101064.47;;;5.30;60.30
59272;BME280;45043;51.068;7.026;2023-04-30T04:44:52;101065.03;;;5.51;59.92
59272;BME280;45043;51.068;7.026;2023-04-30T04:47:52;101061.81;;;5.57;59.77
59272;BME280;45043;51.068;7.026;2023-04-30T04:50:53;101059.09;;;5.67;59.61
59272;BME280;45043;51.068;7.026;2023-04-30T04:53:54;101061.81;;;5.75;59.24
59272;BME280;45043;51.068;7.026;2023-04-30T04:56:54;101064.38;;;5.85;59.09
59272;BME280;45043;51.068;7.026;2023-04-30T04:59:55;101052.78;;;5.96;58.99
59272;BME280;45043;51.068;7.026;2023-04-30T05:02:55;101061.13;;;6.09;58.34
59272;BME280;45043;51.068;7.026;2023-04-30T05:05:56;101059.16;;;6.11;58.33
59272;BME280;45043;51.068;7.026;2023-04-30T05:08:56;101060.38;;;6.17;58.07
59272;BME280;45043;51.068;7.026;2023-04-30T05:11:57;101055.81;;;6.27;57.85
59272;BME280;45043;51.068;7.026;2023-04-30T05:14:57;101057.69;;;6.34;57.61
59272;BME280;45043;51.068;7.026;2023-04-30T05:17:57;101065.19;;;6.47;57.31
59272;BME280;45043;51.068;7.026;2023-04-30T05:20:58;101068.88;;;6.54;56.87
59272;BME280;45043;51.068;7.026;2023-04-30T05:23:58;101065.59;;;6.60;56.91
59272;BME280;45043;51.068;7.026;2023-04-30T05:26:59;101068.81;;;6.72;56.75
59272;BME280;45043;51.068;7.026;2023-04-30T05:30:02;101078.16;;;6.84;56.41
59272;BME280;45043;51.068;7.026;2023-04-30T05:33:02;101072.59;;;6.96;56.39
59272;BME280;45043;51.068;7.026;2023-04-30T05:36:03;101091.50;;;7.09;55.99
59272;BME280;45043;51.068;7.026;2023-04-30T05:39:03;101085.75;;;7.22;55.81
59272;BME280;45043;51.068;7.026;2023-04-30T05:42:04;101096.88;;;7.33;55.33
59272;BME280;45043;51.068;7.026;2023-04-30T05:45:06;101093.59;;;7.48;54.92
59272;BME280;45043;51.068;7.026;2023-04-30T05:48:06;101107.22;;;7.61;54.79
59272;BME280;45043;51.068;7.026;2023-04-30T05:51:07;101101.94;;;7.77;54.51
59272;BME280;45043;51.068;7.026;2023-04-30T05:54:07;101105.78;;;7.91;54.11
59272;BME280;45043;51.068;7.026;2023-04-30T05:57:08;101106.94;;;7.97;53.95
59272;BME280;45043;51.068;7.026;2023-04-30T06:00:08;101106.91;;;7.89;53.95
59272;BME280;45043;51.068;7.026;2023-04-30T06:03:15;101103.78;;;7.85;54.18
59272;BME280;45043;51.068;7.026;2023-04-30T06:06:16;101108.41;;;7.91;53.89
59272;BME280;45043;51.068;7.026;2023-04-30T06:09:16;101107.75;;;7.97;53.79
59272;BME280;45043;51.068;7.026;2023-04-30T06:12:17;101096.53;;;7.95;53.92
59272;BME280;45043;51.068;7.026;2023-04-30T06:15:17;101098.16;;;8.04;54.03
59272;BME280;45043;51.068;7.026;2023-04-30T06:18:17;101098.19;;;8.13;53.61
59272;BME280;45043;51.068;7.026;2023-04-30T06:21:18;101095.53;;;8.21;53.28
59272;BME280;45043;51.068;7.026;2023-04-30T06:24:21;101091.75;;;8.40;53.47
59272;BME280;45043;51.068;7.026;2023-04-30T06:27:21;101091.41;;;8.51;53.32
59272;BME280;45043;51.068;7.026;2023-04-30T06:30:22;101087.75;;;8.60;52.72
59272;BME280;45043;51.068;7.026;2023-04-30T06:33:23;101093.69;;;8.70;52.60
59272;BME280;45043;51.068;7.026;2023-04-30T06:36:23;101095.16;;;8.81;53.05
59272;BME280;45043;51.068;7.026;2023-04-30T06:39:23;101091.31;;;8.92;52.47
59272;BME280;45043;51.068;7.026;2023-04-30T06:42:24;101093.91;;;9.08;52.23
59272;BME280;45043;51.068;7.026;2023-04-30T06:45:24;101086.25;;;9.21;51.99
59272;BME280;45043;51.068;7.026;2023-04-30T06:48:25;101092.16;;;9.32;51.57
59272;BME280;45043;51.068;7.026;2023-04-30T06:51:25;101091.81;;;9.35;51.62
59272;BME280;45043;51.068;7.026;2023-04-30T06:54:26;101087.94;;;9.45;51.85
59272;BME280;45043;51.068;7.026;2023-04-30T06:57:26;101087.75;;;9.55;51.80
59272;BME280;45043;51.068;7.026;2023-04-30T07:00:27;101083.41;;;9.62;51.63
59272;BME280;45043;51.068;7.026;2023-04-30T07:03:27;101091.72;;;9.82;53.50
59272;BME280;45043;51.068;7.026;2023-04-30T07:06:28;101083.13;;;10.03;52.12
59272;BME280;45043;51.068;7.026;2023-04-30T07:09:34;101081.41;;;10.10;51.39
59272;BME280;45043;51.068;7.026;2023-04-30T07:12:36;101085.16;;;10.16;50.69
59272;BME280;45043;51.068;7.026;2023-04-30T07:15:36;101087.13;;;10.22;50.89
59272;BME280;45043;51.068;7.026;2023-04-30T07:18:37;101082.47;;;10.24;50.52
59272;BME280;45043;51.068;7.026;2023-04-30T07:21:38;101077.19;;;10.39;50.69
59272;BME280;45043;51.068;7.026;2023-04-30T07:24:38;101082.22;;;10.48;50.66
59272;BME280;45043;51.068;7.026;2023-04-30T07:27:39;101078.56;;;10.64;50.32
59272;BME280;45043;51.068;7.026;2023-04-30T07:30:40;101084.47;;;10.75;49.97
59272;BME280;45043;51.068;7.026;2023-04-30T07:33:40;101090.34;;;10.85;49.30
59272;BME280;45043;51.068;7.026;2023-04-30T07:36:41;101088.63;;;10.92;49.05
59272;BME280;45043;51.068;7.026;2023-04-30T07:39:42;101083.84;;;11.02;48.89
59272;BME280;45043;51.068;7.026;2023-04-30T07:42:42;101066.59;;;11.13;48.95
59272;BME280;45043;51.068;7.026;2023-04-30T07:45:44;101076.00;;;11.30;47.95
59272;BME280;45043;51.068;7.026;2023-04-30T07:48:44;101075.97;;;11.45;47.27
59272;BME280;45043;51.068;7.026;2023-04-30T07:51:45;101074.59;;;11.49;46.89
59272;BME280;45043;51.068;7.026;2023-04-30T07:54:45;101069.34;;;11.56;46.78
59272;BME280;45043;51.068;7.026;2023-04-30T07:57:46;101080.16;;;11.69;46.11
59272;BME280;45043;51.068;7.026;2023-04-30T08:00:46;101074.28;;;11.74;45.44
59272;BME280;45043;51.068;7.026;2023-04-30T08:03:47;101081.25;;;11.75;44.69
59272;BME280;45043;51.068;7.026;2023-04-30T08:06:47;101077.03;;;11.65;44.59
59272;BME280;45043;51.068;7.026;2023-04-30T08:09:48;101071.97;;;11.70;44.25
59272;BME280;45043;51.068;7.026;2023-04-30T08:12:48;101069.03;;;11.80;44.73
59272;BME280;45043;51.068;7.026;2023-04-30T08:15:49;101072.00;;;11.92;44.36
59272;BME280;45043;51.068;7.026;2023-04-30T08:18:49;101078.81;;;12.01;44.25
59272;BME280;45043;51.068;7.026;2023-04-30T08:21:50;101083.25;;;12.15;44.33
59272;BME280;45043;51.068;7.026;2023-04-30T08:24:51;101078.44;;;12.26;42.87
59272;BME280;45043;51.068;7.026;2023-04-30T08:27:52;101080.88;;;12.21;42.79
59272;BME280;45043;51.068;7.026;2023-04-30T08:30:53;101083.13;;;12.24;42.45
59272;BME280;45043;51.068;7.026;2023-04-30T08:33:54;101076.00;;;12.31;42.71
59272;BME280;45043;51.068;7.026;2023-04-30T08:36:54;101078.13;;;12.42;42.92
59272;BME280;45043;51.068;7.026;2023-04-30T08:39:55;101073.28;;;12.52;41.95
59272;BME280;45043;51.068;7.026;2023-04-30T08:43:04;101072.47;;;12.52;42.11
59272;BME280;45043;51.068;7.026;2023-04-30T08:46:06;101074.13;;;12.53;42.18
59272;BME280;45043;51.068;7.026;2023-04-30T08:49:07;101064.72;;;12.57;41.44
59272;BME280;45043;51.068;7.026;2023-04-30T08:52:08;101068.19;;;12.57;42.03
59272;BME280;45043;51.068;7.026;2023-04-30T08:55:09;101068.06;;;12.65;42.10
59272;BME280;45043;51.068;7.026;2023-04-30T08:58:10;101061.19;;;12.78;41.77
59272;BME280;45043;51.068;7.026;2023-04-30T09:01:10;101062.03;;;12.85;41.04
59272;BME280;45043;51.068;7.026;2023-04-30T09:04:11;101053.28;;;12.91;41.07
59272;BME280;45043;51.068;7.026;2023-04-30T09:07:12;101063.72;;;12.93;41.50
59272;BME280;45043;51.068;7.026;2023-04-30T09:10:18;101058.44;;;12.99;40.72
59272;BME280;45043;51.068;7.026;2023-04-30T09:13:19;101050.19;;;12.94;40.62
59272;BME280;45043;51.068;7.026;2023-04-30T09:16:20;101057.78;;;12.97;41.11
59272;BME280;45043;51.068;7.026;2023-04-30T09:19:31;101054.16;;;13.11;41.26
59272;BME280;45043;51.068;7.026;2023-04-30T09:22:31;101054.41;;;13.23;41.04
59272;BME280;45043;51.068;7.026;2023-04-30T09:25:39;101056.06;;;13.31;40.24
59272;BME280;45043;51.068;7.026;2023-04-30T09:28:53;101047.06;;;13.32;40.56
59272;BME280;45043;51.068;7.026;2023-04-30T09:32:07;101037.22;;;13.39;40.05
59272;BME280;45043;51.068;7.026;2023-04-30T09:35:28;101030.88;;;13.40;39.98
59272;BME280;45043;51.068;7.026;2023-04-30T09:38:30;101029.81;;;13.34;39.99
59272;BME280;45043;51.068;7.026;2023-04-30T09:41:31;101021.38;;;13.31;39.47
59272;BME280;45043;51.068;7.026;2023-04-30T09:44:37;101017.72;;;13.38;39.63
59272;BME280;45043;51.068;7.026;2023-04-30T09:47:38;101017.97;;;13.50;39.15
59272;BME280;45043;51.068;7.026;2023-04-30T09:50:39;101026.19;;;13.62;38.54
59272;BME280;45043;51.068;7.026;2023-04-30T09:53:41;101019.47;;;13.73;38.52
59272;BME280;45043;51.068;7.026;2023-04-30T09:56:43;101018.88;;;13.84;38.27
59272;BME280;45043;51.068;7.026;2023-04-30T09:59:45;101013.72;;;13.89;38.13
59272;BME280;45043;51.068;7.026;2023-04-30T10:02:47;101013.91;;;13.94;37.87
59272;BME280;45043;51.068;7.026;2023-04-30T10:05:50;101007.94;;;14.05;38.28
59272;BME280;45043;51.068;7.026;2023-04-30T10:08:55;101000.16;;;14.17;37.40
59272;BME280;45043;51.068;7.026;2023-04-30T10:11:56;101002.78;;;14.24;37.16
59272;BME280;45043;51.068;7.026;2023-04-30T10:15:05;101001.97;;;14.37;36.86
59272;BME280;45043;51.068;7.026;2023-04-30T10:18:20;100997.44;;;14.24;36.35
59272;BME280;45043;51.068;7.026;2023-04-30T10:21:23;100992.72;;;14.13;36.07
59272;BME280;45043;51.068;7.026;2023-04-30T10:24:26;100994.41;;;14.07;36.31
59272;BME280;45043;51.068;7.026;2023-04-30T10:27:28;100990.69;;;14.15;36.23
59272;BME280;45043;51.068;7.026;2023-04-30T10:30:30;100984.09;;;14.24;36.16
59272;BME280;45043;51.068;7.026;2023-04-30T10:33:36;100988.38;;;14.31;35.90
59272;BME280;45043;51.068;7.026;2023-04-30T10:36:53;100985.53;;;14.33;36.25
59272;BME280;45043;51.068;7.026;2023-04-30T10:39:54;100985.34;;;14.21;36.06
59272;BME280;45043;51.068;7.026;2023-04-30T10:42:58;100980.19;;;14.20;36.02
59272;BME280;45043;51.068;7.026;2023-04-30T10:45:59;100972.81;;;14.15;36.20
59272;BME280;45043;51.068;7.026;2023-04-30T10:48:59;100967.47;;;14.22;35.66
59272;BME280;45043;51.068;7.026;2023-04-30T10:52:03;100965.38;;;14.24;35.89
59272;BME280;45043;51.068;7.026;2023-04-30T10:55:05;100967.41;;;14.35;35.87
59272;BME280;45043;51.068;7.026;2023-04-30T10:59:01;100961.66;;;14.38;35.75
59272;BME280;45043;51.068;7.026;2023-04-30T11:02:07;100959.59;;;14.40;35.64
59272;BME280;45043;51.068;7.026;2023-04-30T11:05:44;100957.94;;;14.46;35.48
59272;BME280;45043;51.068;7.026;2023-04-30T11:09:37;100944.31;;;14.54;35.49
59272;BME280;45043;51.068;7.026;2023-04-30T11:12:40;100943.91;;;14.57;34.54
59272;BME280;45043;51.068;7.026;2023-04-30T11:15:44;100942.28;;;14.56;34.58
59272;BME280;45043;51.068;7.026;2023-04-30T11:18:45;100937.94;;;14.62;34.48
59272;BME280;45043;51.068;7.026;2023-04-30T11:28:05;100934.00;;;14.77;34.12
59272;BME280;45043;51.068;7.026;2023-04-30T11:31:06;100933.16;;;14.77;34.55
59272;BME280;45043;51.068;7.026;2023-04-30T11:34:07;100930.66;;;14.82;34.11
59272;BME280;45043;51.068;7.026;2023-04-30T11:37:24;100926.91;;;14.90;33.59
59272;BME280;45043;51.068;7.026;2023-04-30T11:40:34;100925.69;;;14.92;34.31
59272;BME280;45043;51.068;7.026;2023-04-30T11:43:35;100919.47;;;14.98;34.39
59272;BME280;45043;51.068;7.026;2023-04-30T11:46:36;100918.25;;;14.94;34.42
59272;BME280;45043;51.068;7.026;2023-04-30T11:49:36;100922.22;;;14.85;34.10
59272;BME280;45043;51.068;7.026;2023-04-30T11:52:38;100911.88;;;14.95;34.78
59272;BME280;45043;51.068;7.026;2023-04-30T11:55:39;100913.28;;;14.98;34.00
59272;BME280;45043;51.068;7.026;2023-04-30T11:58:40;100905.78;;;15.13;33.76
59272;BME280;45043;51.068;7.026;2023-04-30T12:01:42;100903.06;;;15.20;34.38
59272;BME280;45043;51.068;7.026;2023-04-30T12:04:43;100898.75;;;15.19;34.04
59272;BME280;45043;51.068;7.026;2023-04-30T12:10:46;100894.56;;;15.29;33.46
59272;BME280;45043;51.068;7.026;2023-04-30T12:14:04;100897.41;;;15.35;33.44
59272;BME280;45043;51.068;7.026;2023-04-30T12:17:07;100892.81;;;15.42;33.37
59272;BME280;45043;51.068;7.026;2023-04-30T12:20:09;100881.75;;;15.63;32.99
59272;BME280;45043;51.068;7.026;2023-04-30T12:23:10;100883.03;;;15.79;33.01
59272;BME280;45043;51.068;7.026;2023-04-30T12:26:10;100880.53;;;16.02;32.07
59272;BME280;45043;51.068;7.026;2023-04-30T12:29:15;100866.31;;;16.20;31.45
59272;BME280;45043;51.068;7.026;2023-04-30T12:32:17;100869.53;;;16.29;31.52
59272;BME280;45043;51.068;7.026;2023-04-30T12:35:22;100871.59;;;16.45;31.15
59272;BME280;45043;51.068;7.026;2023-04-30T12:38:24;100865.16;;;16.65;30.55
59272;BME280;45043;51.068;7.026;2023-04-30T12:41:28;100863.84;;;16.86;30.81
59272;BME280;45043;51.068;7.026;2023-04-30T12:44:29;100857.94;;;17.07;30.16
59272;BME280;45043;51.068;7.026;2023-04-30T12:47:29;100858.31;;;17.11;30.13
59272;BME280;45043;51.068;7.026;2023-04-30T12:50:30;100855.97;;;17.03;30.28
59272;BME280;45043;51.068;7.026;2023-04-30T12:53:30;100854.81;;;17.10;30.08
59272;BME280;45043;51.068;7.026;2023-04-30T12:56:31;100860.22;;;17.22;29.85
59272;BME280;45043;51.068;7.026;2023-04-30T13:00:14;100849.09;;;17.07;30.48
59272;BME280;45043;51.068;7.026;2023-04-30T13:02:57;100849.28;;;17.05;30.67
59272;BME280;45043;51.068;7.026;2023-04-30T13:05:57;100837.69;;;17.23;30.74
59272;BME280;45043;51.068;7.026;2023-04-30T13:08:58;100844.22;;;17.27;30.97
59272;BME280;45043;51.068;7.026;2023-04-30T13:11:58;100837.47;;;17.36;30.80
59272;BME280;45043;51.068;7.026;2023-04-30T13:14:59;100832.81;;;17.55;30.38
59272;BME280;45043;51.068;7.026;2023-04-30T13:17:59;100834.53;;;17.50;29.94
59272;BME280;45043;51.068;7.026;2023-04-30T13:21:00;100833.47;;;17.39;30.40
59272;BME280;45043;51.068;7.026;2023-04-30T13:24:01;100822.16;;;17.49;30.22
59272;BME280;45043;51.068;7.026;2023-04-30T13:27:01;100819.72;;;17.70;29.96
59272;BME280;45043;51.068;7.026;2023-04-30T13:30:02;100827.03;;;17.99;29.98
59272;BME280;45043;51.068;7.026;2023-04-30T13:33:03;100808.97;;;18.23;29.45
59272;BME280;45043;51.068;7.026;2023-04-30T13:36:04;100812.34;;;18.30;28.97
59272;BME280;45043;51.068;7.026;2023-04-30T13:39:04;100809.66;;;18.58;29.32
59272;BME280;45043;51.068;7.026;2023-04-30T13:42:06;100805.75;;;18.66;29.14
59272;BME280;45043;51.068;7.026;2023-04-30T13:45:07;100805.63;;;18.89;28.47
59272;BME280;45043;51.068;7.026;2023-04-30T13:48:07;100794.69;;;19.13;28.28
59272;BME280;45043;51.068;7.026;2023-04-30T13:51:08;100783.56;;;19.60;27.86
59272;BME280;45043;51.068;7.026;2023-04-30T13:54:08;100795.13;;;19.77;28.15
59272;BME280;45043;51.068;7.026;2023-04-30T13:57:09;100786.59;;;19.85;27.94
59272;BME280;45043;51.068;7.026;2023-04-30T14:00:10;100788.66;;;19.78;27.57
59272;BME280;45043;51.068;7.026;2023-04-30T14:03:15;100782.81;;;19.86;27.59
59272;BME280;45043;51.068;7.026;2023-04-30T14:06:15;100779.69;;;20.44;26.48
59272;BME280;45043;51.068;7.026;2023-04-30T14:09:15;100764.16;;;20.83;26.36
59272;BME280;45043;51.068;7.026;2023-04-30T14:12:17;100767.63;;;20.78;26.46
59272;BME280;45043;51.068;7.026;2023-04-30T14:15:17;100759.31;;;21.27;25.65
59272;BME280;45043;51.068;7.026;2023-04-30T14:18:18;100752.78;;;21.61;24.65
59272;BME280;45043;51.068;7.026;2023-04-30T14:21:22;100749.13;;;22.02;24.07
59272;BME280;45043;51.068;7.026;2023-04-30T14:24:22;100753.81;;;22.33;23.69
59272;BME280;45043;51.068;7.026;2023-04-30T14:27:23;100739.22;;;22.44;24.38
59272;BME280;45043;51.068;7.026;2023-04-30T14:30:25;100746.19;;;22.04;24.08
59272;BME280;45043;51.068;7.026;2023-04-30T14:33:25;100750.03;;;22.44;23.47
59272;BME280;45043;51.068;7.026;2023-04-30T14:36:26;100744.63;;;22.18;23.60
59272;BME280;45043;51.068;7.026;2023-04-30T14:39:27;100740.66;;;21.73;24.63
59272;BME280;45043;51.068;7.026;2023-04-30T14:42:28;100742.59;;;21.30;25.05
59272;BME280;45043;51.068;7.026;2023-04-30T14:45:30;100729.63;;;20.90;26.42
59272;BME280;45043;51.068;7.026;2023-04-30T14:48:32;100736.78;;;20.15;26.58
59272;BME280;45043;51.068;7.026;2023-04-30T14:51:32;100730.41;;;19.77;27.47
59272;BME280;45043;51.068;7.026;2023-04-30T14:54:33;100724.97;;;19.33;27.85
59272;BME280;45043;51.068;7.026;2023-04-30T14:57:33;100732.59;;;19.03;28.10
59272;BME280;45043;51.068;7.026;2023-04-30T15:00:35;100729.56;;;19.77;27.08
59272;BME280;45043;51.068;7.026;2023-04-30T15:03:35;100720.22;;;20.61;26.46
59272;BME280;45043;51.068;7.026;2023-04-30T15:06:37;100716.41;;;20.56;25.44
59272;BME280;45043;51.068;7.026;2023-04-30T15:09:38;100719.63;;;20.26;25.52
59272;BME280;45043;51.068;7.026;2023-04-30T15:12:39;100715.41;;;19.86;26.72
59272;BME280;45043;51.068;7.026;2023-04-30T15:15:39;100716.19;;;19.60;27.68
59272;BME280;45043;51.068;7.026;2023-04-30T15:18:39;100726.09;;;19.37;28.01
59272;BME280;45043;51.068;7.026;2023-04-30T15:21:43;100722.19;;;19.28;28.15
59272;BME280;45043;51.068;7.026;2023-04-30T15:24:43;100718.16;;;19.09;28.20
59272;BME280;45043;51.068;7.026;2023-04-30T15:27:44;100714.75;;;18.97;28.24
59272;BME280;45043;51.068;7.026;2023-04-30T15:30:44;100714.28;;;18.83;29.17
59272;BME280;45043;51.068;7.026;2023-04-30T15:33:45;100712.41;;;18.66;29.24
59272;BME280;45043;51.068;7.026;2023-04-30T15:36:45;100711.41;;;18.56;29.13
59272;BME280;45043;51.068;7.026;2023-04-30T15:39:46;100717.75;;;18.50;29.51
59272;BME280;45043;51.068;7.026;2023-04-30T15:42:46;100707.38;;;18.41;29.74
59272;BME280;45043;51.068;7.026;2023-04-30T15:45:47;100707.06;;;18.38;29.84
59272;BME280;45043;51.068;7.026;2023-04-30T15:48:47;100698.06;;;18.32;29.89
59272;BME280;45043;51.068;7.026;2023-04-30T15:51:50;100696.44;;;18.31;29.37
59272;BME280;45043;51.068;7.026;2023-04-30T15:54:55;100698.44;;;18.86;28.50
59272;BME280;45043;51.068;7.026;2023-04-30T15:57:55;100686.94;;;19.96;27.58
59272;BME280;45043;51.068;7.026;2023-04-30T16:00:56;100683.28;;;21.03;26.86
59272;BME280;45043;51.068;7.026;2023-04-30T16:03:56;100689.34;;;21.99;25.84
59272;BME280;45043;51.068;7.026;2023-04-30T16:06:57;100682.34;;;22.85;25.14
59272;BME280;45043;51.068;7.026;2023-04-30T16:09:58;100673.47;;;23.59;24.02
59272;BME280;45043;51.068;7.026;2023-04-30T16:13:00;100671.56;;;24.09;23.50
59272;BME280;45043;51.068;7.026;2023-04-30T16:16:01;100677.56;;;24.06;23.27
59272;BME280;45043;51.068;7.026;2023-04-30T16:19:02;100674.47;;;23.74;23.63